Beaupre, Canada
Current Conditions -  °F | °C
As of 7:00 PM on Friday 28 Nov 2014 (Local Time) from CYQB Reporting Station
Scattered Clouds Scattered Clouds  
Wind Chill:   Ceiling: Unl
Heat Index: 19°   Visibility: 15mi
Dew Point:   Wind: 10mph
Humidity: 63%   Direction: 290°WNW
Pressure: 30.1"   Gusts: NA
Location:  47.05°N, 70.89°W
Report Text: CYQB 290000Z 29009KT 280V340 15SM FEW035 SCT070 M07/M13 A3010 RMK SC1AC4 SC TR SLP198
Loading
Personal Weather Stations






























Interactive Weather Map New forecast layout! Learn more

10-Day Weather Forecast

Advertisements
Track Severe Weather on mobile